< < Back
Terminal Aerodrome Forecast


Current Version              Previous Versions:   1  2  3  4  5  6  7  8  9  

Terminal Aerodrome Forecast

173
FTUS42 KFFC 262337
TAFATL
TAF
KATL 262337Z 2700/2806 23008KT P6SM SCT050 BKN200
      TEMPO 2702/2704 6SM -SHRA BR BKN035
     FM270400 30010G18KT 6SM -SHRA BR OVC020
     FM270600 31010KT P6SM -RA OVC008
     FM271100 32012G22KT P6SM BKN020
     FM271500 33015G25KT P6SM SCT025 BKN050
     FM272100 32012G22KT P6SM BKN070
     FM280300 32012KT P6SM SCT100=



Latest METAR

198
SAUS70 KWBC 270700 RRD
MTRATL
METAR KATL 270652Z 33008KT 10SM FEW018 BKN030 BKN100 BKN200 12/09 A2975
RMK AO2 RAB03E26 SLP071 P0000 T01220094


USA.gov is the U.S. government's official web portal to all federal, state and local government web resources and services.